Time;durP1;ratioP1;P1;durP2;ratioP2;P2;SDS_P1;SDS_P2;PMS_P1;PMS_P2;Temp;Humidity;BMP_temperature;BMP_pressure;BME280_temperature;BME280_humidity;BME280_pressure;Samples;Min_cycle;Max_cycle;Signal;HPM_P1;HPM_P2
2022/04/17 00:00:10;;;;;;;9.27;3.60;;;;;;;7.75;44.08;101636.31;5095569;28;20059;-79
2022/04/17 00:02:36;;;;;;;9.02;4.30;;;;;;;7.74;44.13;101633.81;5095736;28;20073;-79
2022/04/17 00:05:01;;;;;;;;;;;;;;;7.89;43.57;101630.38;5096163;28;20112;-79
2022/04/17 00:07:27;;;;;;;10.18;4.03;;;;;;;8.02;42.89;101627.28;5096264;28;20409;-79
2022/04/17 00:09:52;;;;;;;9.43;4.10;;;;;;;7.97;42.54;101630.44;5095017;28;20117;-78
2022/04/17 00:12:17;;;;;;;8.43;4.13;;;;;;;7.91;42.46;101627.53;5095084;28;20473;-78
2022/04/17 00:14:43;;;;;;;8.63;4.00;;;;;;;7.84;42.69;101629.19;5095950;28;20103;-79
2022/04/17 00:17:10;;;;;;;9.07;4.03;;;;;;;7.81;42.87;101624.13;5096625;28;20032;-79
2022/04/17 00:19:35;;;;;;;7.45;3.95;;;;;;;7.77;42.72;101623.59;5097253;28;20097;-79
2022/04/17 00:22:00;;;;;;;12.50;4.63;;;;;;;7.82;42.22;101623.97;5097458;28;20382;-79
2022/04/17 00:24:27;;;;;;;9.60;3.93;;;;;;;7.72;43.05;101619.69;5096316;28;20429;-79
2022/04/17 00:26:52;;;;;;;6.78;3.42;;;;;;;7.75;42.96;101614.88;5094388;28;20044;-78
2022/04/17 00:29:17;;;;;;;8.07;4.20;;;;;;;7.74;43.56;101609.66;5094951;28;20039;-79
2022/04/17 00:31:43;;;;;;;8.17;3.53;;;;;;;7.63;43.21;101605.41;5094584;28;20028;-79
2022/04/17 00:34:08;;;;;;;9.77;4.53;;;;;;;7.55;43.26;101608.00;5094198;28;20073;-79
2022/04/17 00:36:34;;;;;;;9.20;4.25;;;;;;;7.54;43.60;101601.81;5094532;28;20107;-78
2022/04/17 00:38:59;;;;;;;8.15;4.13;;;;;;;7.51;43.73;101601.28;5093889;28;20028;-78
2022/04/17 00:41:24;;;;;;;7.50;4.00;;;;;;;7.58;43.37;101602.34;5092921;28;20024;-78
2022/04/17 00:43:50;;;;;;;9.27;4.87;;;;;;;7.47;44.02;101599.91;5094990;28;20036;-78
2022/04/17 00:46:15;;;;;;;10.77;4.20;;;;;;;7.44;43.95;101594.88;5095820;28;20039;-78
2022/04/17 00:48:41;;;;;;;8.10;4.32;;;;;;;7.32;44.18;101599.63;5099605;28;20663;-78
2022/04/17 00:51:07;;;;;;;10.27;4.83;;;;;;;7.30;44.20;101596.28;5103512;28;20032;-79
2022/04/17 00:53:34;;;;;;;8.48;4.10;;;;;;;7.30;44.78;101589.06;5104487;28;20584;-79
2022/04/17 00:56:00;;;;;;;10.63;4.78;;;;;;;7.27;43.97;101589.38;5103909;28;20046;-79
2022/04/17 00:58:28;;;;;;;10.38;3.92;;;;;;;7.23;44.36;101592.50;5103161;28;20470;-79
2022/04/17 01:00:53;;;;;;;8.52;3.67;;;;;;;7.20;44.27;101585.63;5108081;28;20032;-79
2022/04/17 01:03:19;;;;;;;9.00;3.80;;;;;;;7.24;44.24;101587.00;5105772;28;20112;-80
2022/04/17 01:05:46;;;;;;;10.15;3.45;;;;;;;7.17;44.25;101583.25;5105125;28;20111;-79
2022/04/17 01:08:12;;;;;;;5.82;3.25;;;;;;;7.13;43.68;101578.38;5105663;28;20032;-78
2022/04/17 01:10:38;;;;;;;;;;;;;;;7.22;43.38;101577.41;5103094;28;20103;-79
2022/04/17 01:13:05;;;;;;;8.45;3.42;;;;;;;7.20;43.18;101577.56;5100283;28;19947;-78
2022/04/17 01:15:30;;;;;;;6.43;2.85;;;;;;;7.28;42.86;101576.81;5099064;28;20111;-78
2022/04/17 01:17:56;;;;;;;6.15;3.15;;;;;;;7.37;43.05;101577.69;5098893;28;20427;-78
2022/04/17 01:20:22;;;;;;;5.50;2.47;;;;;;;7.22;42.87;101569.38;5098937;28;20032;-79
2022/04/17 01:22:48;;;;;;;7.65;3.20;;;;;;;7.16;43.09;101573.53;5099278;28;20032;-79
2022/04/17 01:28:00;;;;;;;5.80;2.40;;;;;;;7.14;43.94;101570.16;5099385;28;20351;-78
2022/04/17 01:30:26;;;;;;;9.10;3.80;;;;;;;7.18;43.58;101574.19;5098997;28;20561;-78
2022/04/17 01:32:51;;;;;;;7.93;3.30;;;;;;;7.05;44.91;101581.81;5100035;28;20071;-78
2022/04/17 01:35:17;;;;;;;7.38;2.80;;;;;;;7.15;44.37;101576.38;5099599;28;20343;-78
2022/04/17 01:37:46;;;;;;;9.35;3.63;;;;;;;7.01;44.13;101574.22;5097516;28;20035;-79
2022/04/17 01:40:12;;;;;;;8.52;3.72;;;;;;;6.91;44.58;101568.94;5097253;28;20067;-79
2022/04/17 01:42:37;;;;;;;10.17;3.70;;;;;;;6.89;45.48;101569.09;5097478;28;20040;-79
2022/04/17 01:45:03;;;;;;;8.77;3.13;;;;;;;6.95;44.92;101571.19;5097145;28;20035;-79
2022/04/17 01:47:29;;;;;;;6.95;2.95;;;;;;;6.82;45.38;101569.84;5097129;28;20032;-79
2022/04/17 01:49:55;;;;;;;5.85;2.65;;;;;;;6.87;45.23;101567.56;5097254;28;20470;-79
2022/04/17 01:52:20;;;;;;;5.33;3.13;;;;;;;6.72;46.06;101569.09;5097452;28;20025;-79
2022/04/17 01:54:45;;;;;;;6.03;2.37;;;;;;;6.77;45.66;101570.31;5097101;28;20059;-78
2022/04/17 01:57:10;;;;;;;6.23;2.73;;;;;;;6.73;45.97;101571.63;5096952;28;20452;-78
2022/04/17 01:59:36;;;;;;;6.03;3.13;;;;;;;6.75;45.89;101563.44;5096320;28;20028;-79
2022/04/17 02:02:02;;;;;;;5.03;2.42;;;;;;;6.82;46.27;101562.66;5095824;28;20448;-79
2022/04/17 02:04:32;;;;;;;5.80;2.45;;;;;;;6.87;45.87;101562.19;5097290;28;20105;-78
2022/04/17 02:06:57;;;;;;;5.05;2.25;;;;;;;6.91;46.36;101561.75;5097101;28;20042;-78
2022/04/17 02:09:22;;;;;;;5.10;2.73;;;;;;;6.89;46.13;101562.91;5096943;28;20024;-78
2022/04/17 02:11:48;;;;;;;3.78;1.90;;;;;;;6.89;45.73;101562.91;5095547;28;20024;-78
2022/04/17 02:14:14;;;;;;;5.40;2.33;;;;;;;6.93;46.49;101561.59;5095717;28;20131;-78
2022/04/17 02:16:40;;;;;;;4.72;2.08;;;;;;;6.79;46.08;101552.28;5096772;28;20036;-78
2022/04/17 02:19:05;;;;;;;4.60;1.90;;;;;;;6.67;46.89;101555.31;5096368;28;20085;-78
2022/04/17 02:21:31;;;;;;;5.00;2.13;;;;;;;6.76;47.21;101552.56;5096740;28;20032;-78
2022/04/17 02:23:56;;;;;;;3.22;1.65;;;;;;;6.92;46.92;101555.41;5095454;28;20032;-78
2022/04/17 02:26:22;;;;;;;4.97;2.05;;;;;;;6.92;46.76;101551.88;5096075;28;20044;-78
2022/04/17 02:28:47;;;;;;;5.20;1.92;;;;;;;6.92;46.79;101554.56;5096095;28;20039;-78
2022/04/17 02:31:15;;;;;;;5.13;1.90;;;;;;;6.91;46.76;101548.34;5095326;28;20035;-78
2022/04/17 02:33:41;;;;;;;7.20;1.60;;;;;;;6.98;46.47;101545.91;5096480;28;20059;-77
2022/04/17 02:36:06;;;;;;;5.20;2.10;;;;;;;6.95;46.89;101544.38;5096224;28;20425;-78
2022/04/17 02:38:32;;;;;;;4.47;1.42;;;;;;;6.97;46.42;101545.06;5096538;28;20578;-78
2022/04/17 02:40:57;;;;;;;3.88;2.03;;;;;;;6.87;46.80;101546.13;5096436;28;20108;-78
2022/04/17 02:43:23;;;;;;;3.57;1.50;;;;;;;6.94;46.71;101539.16;5096167;28;20048;-78
2022/04/17 02:45:51;;;;;;;4.10;1.73;;;;;;;6.96;46.78;101538.03;5096056;28;20380;-78
2022/04/17 02:48:17;;;;;;;4.15;1.77;;;;;;;6.99;46.65;101541.41;5094873;28;20036;-79
2022/04/17 02:50:42;;;;;;;5.47;1.63;;;;;;;7.02;46.87;101549.94;5095604;28;20047;-79
2022/04/17 02:53:08;;;;;;;3.97;1.67;;;;;;;7.02;46.67;101538.38;5097291;28;20077;-79
2022/04/17 02:55:34;;;;;;;6.05;1.52;;;;;;;7.09;46.45;101542.13;5097775;28;20258;-79
2022/04/17 02:58:00;;;;;;;3.80;1.63;;;;;;;7.14;46.64;101543.38;5098643;28;20069;-79
2022/04/17 03:00:31;;;;;;;4.90;1.88;;;;;;;7.12;46.47;101542.69;5098596;28;20460;-79
2022/04/17 03:05:41;;;;;;;4.30;1.55;;;;;;;7.08;46.93;101535.94;5097793;28;20042;-78
2022/04/17 03:08:16;;;;;;;4.63;1.45;;;;;;;7.11;46.76;101537.47;5094676;28;20466;-79
2022/04/17 03:10:43;;;;;;;4.75;1.50;;;;;;;7.14;46.55;101538.00;5095095;28;20061;-78
2022/04/17 03:13:09;;;;;;;4.10;1.70;;;;;;;7.05;46.92;101538.91;5098009;28;20032;-79
2022/04/17 03:15:37;;;;;;;3.90;1.70;;;;;;;7.17;46.65;101524.28;5099489;28;20042;-78
2022/04/17 03:18:03;;;;;;;4.30;1.30;;;;;;;7.06;47.30;101531.72;5099128;28;20043;-79
2022/04/17 03:20:29;;;;;;;6.10;1.45;;;;;;;7.10;47.33;101535.78;5099545;28;20024;-79
2022/04/17 03:22:54;;;;;;;4.35;1.55;;;;;;;7.11;47.26;101522.22;5097692;28;20039;-79
2022/04/17 03:25:20;;;;;;;3.38;1.50;;;;;;;7.03;47.33;101524.84;5098733;28;20024;-79
2022/04/17 03:27:49;;;;;;;4.20;1.60;;;;;;;7.04;47.63;101520.31;5097470;28;20073;-78
2022/04/17 03:30:15;;;;;;;3.30;1.17;;;;;;;7.03;47.80;101522.16;5096979;28;20115;-79
2022/04/17 03:32:42;;;;;;;2.92;1.15;;;;;;;6.94;47.78;101525.78;5096354;28;20153;-78
2022/04/17 03:35:08;;;;;;;2.90;1.27;;;;;;;7.01;48.16;101521.47;5096019;28;20414;-78
2022/04/17 03:37:34;;;;;;;3.40;1.63;;;;;;;7.07;47.63;101525.38;5097231;28;20035;-79
2022/04/17 03:40:00;;;;;;;4.15;1.55;;;;;;;7.06;47.52;101524.53;5096718;28;20107;-79
2022/04/17 03:42:25;;;;;;;2.57;1.30;;;;;;;7.00;47.79;101527.81;5096431;28;20563;-79
2022/04/17 03:44:50;;;;;;;3.77;1.50;;;;;;;7.07;47.69;101523.53;5095871;28;20024;-79
2022/04/17 03:47:15;;;;;;;5.13;1.30;;;;;;;7.01;47.84;101526.81;5096607;28;20111;-79
2022/04/17 03:49:41;;;;;;;3.33;1.37;;;;;;;7.12;47.94;101523.91;5096863;28;20032;-79
2022/04/17 03:52:06;;;;;;;3.57;1.30;;;;;;;6.94;47.95;101521.25;5095899;28;20379;-78
2022/04/17 03:54:31;;;;;;;5.35;1.50;;;;;;;6.96;47.83;101518.44;5096632;28;20031;-78
2022/04/17 03:56:57;;;;;;;2.80;1.40;;;;;;;6.94;48.21;101515.06;5097225;28;20036;-79
2022/04/17 03:59:22;;;;;;;4.27;1.70;;;;;;;6.84;47.84;101520.47;5098879;28;20036;-80
2022/04/17 04:01:48;;;;;;;4.03;1.40;;;;;;;7.01;47.74;101509.91;5099870;28;20725;-79
2022/04/17 04:04:15;;;;;;;10.48;1.45;;;;;;;6.96;48.35;101515.75;5104332;28;20498;-79
2022/04/17 04:06:41;;;;;;;3.67;1.52;;;;;;;6.94;48.28;101510.53;5103149;28;20028;-79
2022/04/17 04:09:06;;;;;;;3.72;1.30;;;;;;;6.85;48.92;101511.44;5103681;28;20039;-80
2022/04/17 04:11:32;;;;;;;2.83;1.10;;;;;;;6.96;48.76;101507.72;5108532;28;20040;-80
2022/04/17 04:13:57;;;;;;;2.90;1.27;;;;;;;6.87;48.34;101492.53;5104200;28;20301;-80
2022/04/17 04:16:22;;;;;;;4.73;1.50;;;;;;;6.88;49.13;101484.34;5097097;28;20088;-80
2022/04/17 04:18:47;;;;;;;4.03;1.20;;;;;;;6.89;48.44;101486.03;5095913;28;20442;-79
2022/04/17 04:21:14;;;;;;;3.20;1.50;;;;;;;6.82;48.75;101489.47;5095938;28;20482;-80
2022/04/17 04:23:41;;;;;;;5.43;1.77;;;;;;;6.80;48.75;101486.97;5094533;28;20123;-80
2022/04/17 04:26:07;;;;;;;4.78;1.60;;;;;;;6.86;48.43;101485.50;5095814;28;20067;-79
2022/04/17 04:28:38;;;;;;;4.03;1.15;;;;;;;6.79;49.23;101477.25;5095552;28;20028;-80
2022/04/17 04:31:05;;;;;;;4.22;1.27;;;;;;;6.82;48.86;101479.59;5096525;28;20036;-79
2022/04/17 04:33:32;;;;;;;3.25;1.20;;;;;;;6.89;48.85;101486.03;5098185;28;20020;-80
2022/04/17 04:36:01;;;;;;;4.53;1.50;;;;;;;6.87;49.45;101481.84;5097330;28;20470;-79
2022/04/17 04:38:27;;;;;;;3.47;1.33;;;;;;;6.85;49.22;101489.19;5099119;28;20040;-79
2022/04/17 04:40:52;;;;;;;4.28;1.60;;;;;;;6.92;48.77;101485.75;5099559;28;20035;-79
2022/04/17 04:43:18;;;;;;;3.23;1.20;;;;;;;6.83;49.41;101485.81;5098548;28;20035;-78
2022/04/17 04:51:28;;;;;;;3.20;1.20;;;;;;;6.82;49.30;101476.94;5097981;28;20026;-79
2022/04/17 04:53:55;;;;;;;5.03;1.40;;;;;;;6.88;49.36;101478.16;5100196;28;20032;-80
2022/04/17 04:56:20;;;;;;;3.70;1.63;;;;;;;6.79;49.25;101479.09;5099851;28;20135;-79
2022/04/17 04:58:46;;;;;;;3.45;1.20;;;;;;;6.90;48.90;101479.69;5097645;28;20466;-79
2022/04/17 05:01:12;;;;;;;4.00;1.37;;;;;;;6.94;48.90;101473.03;5100160;28;20375;-82
2022/04/17 05:03:38;;;;;;;2.90;0.98;;;;;;;6.96;48.76;101487.13;5101797;28;20100;-81
2022/04/17 05:06:05;;;;;;;5.78;1.25;;;;;;;7.02;49.20;101474.06;5102644;28;20044;-81
2022/04/17 05:08:30;;;;;;;3.65;1.20;;;;;;;7.11;48.33;101484.72;5103787;28;20050;-81
2022/04/17 05:10:56;;;;;;;3.65;1.20;;;;;;;7.01;48.76;101485.78;5097220;28;20036;-80
2022/04/17 05:13:21;;;;;;;2.85;1.15;;;;;;;7.00;48.85;101481.41;5100935;28;20040;-82
2022/04/17 05:15:47;;;;;;;4.60;1.10;;;;;;;6.96;49.26;101475.56;5103974;28;20047;-81
2022/04/17 05:18:14;;;;;;;4.15;1.30;;;;;;;7.08;48.76;101482.34;5104313;28;20390;-82
2022/04/17 05:20:40;;;;;;;3.13;1.35;;;;;;;7.08;48.64;101484.19;5105602;28;20035;-81
2022/04/17 05:23:18;;;;;;;3.15;1.30;;;;;;;7.08;49.15;101479.66;5105029;28;20032;-81
2022/04/17 05:25:47;;;;;;;2.80;1.10;;;;;;;7.11;48.51;101482.03;5095815;28;20031;-82
2022/04/17 05:28:14;;;;;;;4.72;1.10;;;;;;;7.13;48.41;101485.41;5096591;28;20035;-82
2022/04/17 05:30:39;;;;;;;5.75;1.23;;;;;;;7.27;48.56;101487.50;5096431;28;20466;-79
2022/04/17 05:33:05;;;;;;;4.53;1.48;;;;;;;7.35;47.68;101485.84;5094867;28;20024;-79
2022/04/17 05:35:30;;;;;;;4.80;1.08;;;;;;;7.34;48.24;101489.56;5095867;28;20060;-76
2022/04/17 05:37:56;;;;;;;2.60;1.17;;;;;;;7.30;48.03;101497.91;5095566;28;20085;-76
2022/04/17 05:40:21;;;;;;;3.07;1.20;;;;;;;7.50;47.74;101495.03;5095119;28;20024;-76
2022/04/17 05:42:46;;;;;;;2.90;1.10;;;;;;;7.52;47.34;101495.72;5096432;28;20024;-77
2022/04/17 05:45:12;;;;;;;3.28;1.10;;;;;;;7.54;47.24;101491.00;5096260;28;20042;-76
2022/04/17 05:47:37;;;;;;;3.70;1.47;;;;;;;7.61;47.71;101487.53;5094979;28;20024;-77
2022/04/17 05:50:05;;;;;;;2.88;1.00;;;;;;;7.65;47.56;101494.28;5096388;28;20040;-76
2022/04/17 05:52:30;;;;;;;3.50;1.17;;;;;;;7.83;47.23;101496.88;5096492;28;20039;-76
2022/04/17 05:54:57;;;;;;;3.03;1.03;;;;;;;7.81;46.90;101498.03;5095916;28;20028;-76
2022/04/17 05:57:22;;;;;;;2.88;1.45;;;;;;;7.82;47.23;101499.72;5094885;28;20462;-76
2022/04/17 05:59:48;;;;;;;5.47;1.40;;;;;;;7.86;47.13;101493.88;5095869;28;20030;-76
2022/04/17 06:02:14;;;;;;;3.60;1.10;;;;;;;7.79;47.48;101498.19;5095689;28;20024;-77
2022/04/17 06:04:39;;;;;;;3.03;1.00;;;;;;;7.86;46.97;101495.72;5096094;28;20054;-77
2022/04/17 06:07:04;;;;;;;5.03;1.20;;;;;;;8.06;46.69;101496.28;5094382;28;20032;-76
2022/04/17 06:09:30;;;;;;;2.58;0.90;;;;;;;8.08;46.49;101496.94;5095959;28;20020;-76
2022/04/17 06:11:55;;;;;;;3.70;1.13;;;;;;;8.13;46.63;101497.31;5095976;28;20036;-76
2022/04/17 06:14:20;;;;;;;3.10;1.10;;;;;;;8.19;46.53;101496.66;5095469;28;20024;-76
2022/04/17 06:16:47;;;;;;;2.57;0.90;;;;;;;8.24;46.13;101500.53;5096315;28;20087;-77
2022/04/17 06:19:13;;;;;;;2.85;1.20;;;;;;;8.29;45.92;101500.03;5095917;28;20333;-75
2022/04/17 06:21:39;;;;;;;2.88;1.13;;;;;;;8.47;44.91;101498.09;5096283;28;20066;-76
2022/04/17 06:24:05;;;;;;;2.42;1.00;;;;;;;8.52;45.08;101492.25;5096358;28;20111;-75
2022/04/17 06:26:32;;;;;;;3.33;0.98;;;;;;;8.58;44.12;101489.75;5094788;28;20051;-75
2022/04/17 06:29:03;;;;;;;3.70;1.20;;;;;;;8.56;44.67;101488.22;5095350;28;20043;-76
2022/04/17 06:31:30;;;;;;;3.55;1.27;;;;;;;8.61;44.90;101486.69;5096138;28;20480;-76
2022/04/17 06:33:56;;;;;;;3.72;1.00;;;;;;;8.76;44.14;101483.38;5096928;28;20070;-74
2022/04/17 06:36:21;;;;;;;1.63;0.90;;;;;;;8.85;43.89;101488.56;5098192;28;20024;-74
2022/04/17 06:38:46;;;;;;;1.93;0.90;;;;;;;8.87;43.86;101481.19;5099494;28;20020;-74
2022/04/17 06:41:14;;;;;;;2.43;1.00;;;;;;;8.94;43.60;101481.38;5097795;28;20382;-75
2022/04/17 06:43:39;;;;;;;2.28;0.90;;;;;;;8.90;44.07;101480.84;5096844;28;20051;-74
2022/04/17 06:46:05;;;;;;;2.13;1.07;;;;;;;9.15;43.15;101473.59;5097006;28;20028;-75
2022/04/17 06:48:30;;;;;;;2.50;0.97;;;;;;;9.20;43.66;101479.31;5095895;28;20115;-74
2022/04/17 06:50:56;;;;;;;3.00;1.30;;;;;;;9.39;42.95;101470.03;5094979;28;20462;-74
2022/04/17 06:53:22;;;;;;;3.65;1.35;;;;;;;9.71;42.37;101464.56;5095819;28;20024;-75
2022/04/17 06:55:48;;;;;;;4.10;1.25;;;;;;;10.04;41.94;101454.47;5095763;28;20377;-74
2022/04/17 06:58:18;;;;;;;2.65;1.00;;;;;;;10.16;41.31;101456.78;5095750;28;20082;-75
2022/04/17 07:00:43;;;;;;;3.45;1.02;;;;;;;10.10;41.76;101456.47;5095408;28;20028;-75
2022/04/17 07:03:09;;;;;;;3.05;1.25;;;;;;;10.16;41.38;101463.00;5095332;28;20024;-75
2022/04/17 07:05:34;;;;;;;3.13;0.90;;;;;;;10.29;40.33;101474.06;5095538;28;20032;-77
2022/04/17 07:08:02;;;;;;;2.70;0.90;;;;;;;10.00;40.54;101455.88;5095325;28;20429;-74
2022/04/17 07:10:30;;;;;;;3.40;1.13;;;;;;;9.95;41.26;101458.25;5095915;28;20044;-77
2022/04/17 07:12:56;;;;;;;3.00;1.00;;;;;;;9.98;41.39;101468.66;5095517;28;20471;-77
2022/04/17 07:15:24;;;;;;;3.50;1.08;;;;;;;9.96;41.71;101459.91;5094635;28;20111;-75
2022/04/17 07:17:50;;;;;;;2.28;1.08;;;;;;;10.10;41.17;101459.16;5095012;28;20032;-77
2022/04/17 07:20:16;;;;;;;2.13;0.88;;;;;;;10.15;40.47;101455.13;5095393;28;20070;-79
2022/04/17 07:22:42;;;;;;;2.53;1.00;;;;;;;9.88;40.95;101442.94;5096738;28;20122;-76
2022/04/17 07:25:12;;;;;;;2.50;1.00;;;;;;;10.12;40.92;101447.38;5095155;28;20081;-81
2022/04/17 07:27:42;;;;;;;4.32;1.23;;;;;;;10.40;40.31;101443.19;5099264;28;20052;-78
2022/04/17 07:30:18;;;;;;;2.17;0.80;;;;;;;10.47;39.16;101459.47;5097940;28;20039;-78
2022/04/17 07:32:48;;;;;;;3.15;1.30;;;;;;;10.31;39.91;101449.66;5097770;28;20032;-78
2022/04/17 07:35:15;;;;;;;2.67;0.90;;;;;;;10.56;40.12;101440.41;5096998;28;20035;-78
2022/04/17 07:37:46;;;;;;;2.50;1.05;;;;;;;10.55;40.09;101446.81;5094101;28;20085;-79
2022/04/17 07:40:15;;;;;;;2.88;1.00;;;;;;;10.61;39.96;101443.38;5095404;28;20027;-77
2022/04/17 07:42:41;;;;;;;3.00;0.85;;;;;;;10.65;40.07;101433.06;5095245;28;20493;-77
2022/04/17 07:45:07;;;;;;;2.58;1.20;;;;;;;10.90;39.52;101437.25;5095040;28;20028;-78
2022/04/17 07:47:32;;;;;;;2.72;1.00;;;;;;;10.78;38.30;101444.91;5095369;28;20134;-79
2022/04/17 07:49:59;;;;;;;3.03;1.00;;;;;;;10.88;39.10;101438.44;5097377;28;20413;-80
2022/04/17 07:52:24;;;;;;;2.42;0.90;;;;;;;10.96;38.60;101436.50;5096529;28;20031;-78
2022/04/17 07:54:50;;;;;;;4.50;1.20;;;;;;;11.09;38.18;101450.22;5095809;28;20024;-77
2022/04/17 07:57:15;;;;;;;3.85;1.15;;;;;;;11.19;38.09;101451.81;5095957;28;20080;-79
2022/04/17 07:59:41;;;;;;;2.40;0.90;;;;;;;11.15;38.64;101451.31;5095789;28;20039;-78
2022/04/17 08:02:22;;;;;;;2.60;0.75;;;;;;;11.30;38.21;101440.56;5095505;28;20071;-78
2022/04/17 08:04:51;;;;;;;2.75;1.02;;;;;;;11.19;37.99;101444.56;5095395;28;20028;-78
2022/04/17 08:07:18;;;;;;;2.67;1.10;;;;;;;11.36;37.36;101451.44;5094003;28;20123;-78
2022/04/17 08:09:44;;;;;;;3.20;1.30;;;;;;;11.38;38.13;101454.81;5094590;28;20065;-78
2022/04/17 08:12:09;;;;;;;2.50;0.90;;;;;;;11.25;38.18;101451.09;5095331;28;20028;-78
2022/04/17 08:14:35;;;;;;;2.60;0.97;;;;;;;11.37;38.11;101446.91;5096063;28;20036;-79
2022/04/17 08:17:00;;;;;;;1.83;0.90;;;;;;;11.37;38.73;101446.91;5096377;28;20031;-79
2022/04/17 08:19:25;;;;;;;3.17;1.27;;;;;;;11.49;37.70;101440.84;5096439;28;20035;-78
2022/04/17 08:21:51;;;;;;;2.33;0.87;;;;;;;11.68;38.01;101444.00;5095138;28;20111;-78
2022/04/17 08:24:18;;;;;;;2.63;1.02;;;;;;;11.78;37.99;101434.63;5099109;28;20028;-78
2022/04/17 08:26:43;;;;;;;5.13;1.40;;;;;;;11.63;36.89;101439.19;5100804;28;20521;-79
2022/04/17 08:29:10;;;;;;;1.53;0.80;;;;;;;11.81;37.34;101438.84;5095039;28;20028;-78
2022/04/17 08:31:35;;;;;;;2.28;1.00;;;;;;;11.60;37.56;101436.03;5095894;28;20269;-78
2022/04/17 08:34:01;;;;;;;2.47;0.90;;;;;;;11.75;37.65;101440.38;5095558;28;20028;-78
2022/04/17 08:36:26;;;;;;;2.03;0.88;;;;;;;11.88;36.72;101428.94;5096447;28;20102;-79
2022/04/17 08:38:51;;;;;;;2.13;0.80;;;;;;;11.76;36.64;101430.44;5094799;28;20119;-79
2022/04/17 08:41:20;;;;;;;3.83;1.00;;;;;;;11.86;36.84;101422.03;5093733;28;20413;-79
2022/04/17 08:43:46;;;;;;;2.08;0.90;;;;;;;11.84;37.27;101433.03;5094847;28;20099;-78
2022/04/17 08:46:12;;;;;;;;;;;;;;;11.81;36.72;101428.88;5095664;28;20111;-78
2022/04/17 08:48:37;;;;;;;2.30;1.10;;;;;;;12.08;36.24;101418.38;5094832;28;19962;-78
2022/04/17 08:51:05;;;;;;;2.33;0.90;;;;;;;12.08;37.18;101418.38;5095612;28;20135;-79
2022/04/17 08:53:33;;;;;;;2.30;1.00;;;;;;;11.94;36.40;101405.75;5096945;28;20043;-78
2022/04/17 08:55:59;;;;;;;2.40;0.88;;;;;;;11.96;36.84;101415.34;5095864;28;20032;-78
2022/04/17 08:58:24;;;;;;;2.70;1.00;;;;;;;12.18;36.57;101408.09;5095893;28;20024;-78
2022/04/17 09:00:50;;;;;;;3.38;1.10;;;;;;;12.67;35.37;101405.47;5095857;28;20154;-78
2022/04/17 09:03:15;;;;;;;3.70;1.30;;;;;;;12.70;35.34;101407.78;5096284;28;20059;-78
2022/04/17 09:05:41;;;;;;;3.10;1.30;;;;;;;12.86;35.50;101410.19;5094932;28;20064;-79
2022/04/17 09:08:13;;;;;;;3.33;1.10;;;;;;;12.79;36.87;101401.19;5094496;28;20032;-78
2022/04/17 09:10:39;;;;;;;2.08;0.80;;;;;;;12.83;36.04;101401.63;5099264;28;20035;-79
2022/04/17 09:13:05;;;;;;;2.00;1.00;;;;;;;13.11;35.44;101396.22;5098613;28;20035;-79
2022/04/17 09:15:33;;;;;;;2.42;0.90;;;;;;;13.13;34.43;101396.84;5098271;28;20036;-79
2022/04/17 09:17:58;;;;;;;2.25;0.93;;;;;;;13.43;34.60;101394.81;5098529;28;20031;-79
2022/04/17 09:20:25;;;;;;;4.07;1.13;;;;;;;13.33;33.95;101394.31;5098014;28;20035;-79
2022/04/17 09:22:54;;;;;;;2.67;1.02;;;;;;;13.29;34.16;101382.22;5098214;28;20028;-79
2022/04/17 09:25:22;;;;;;;3.63;1.25;;;;;;;13.34;34.12;101377.03;5098441;28;20060;-78
2022/04/17 09:28:00;;;;;;;2.95;0.70;;;;;;;13.53;34.37;101377.16;5098336;28;20048;-78
2022/04/17 09:30:42;;;;;;;2.88;1.00;;;;;;;13.82;31.89;101367.03;5097953;28;20039;-79
2022/04/17 09:33:13;;;;;;;3.15;0.82;;;;;;;13.87;31.80;101367.28;5098384;28;20034;-79
2022/04/17 09:35:38;;;;;;;2.38;0.80;;;;;;;13.85;31.51;101375.59;5098221;28;20462;-78
2022/04/17 09:38:08;;;;;;;1.95;0.88;;;;;;;13.94;31.31;101368.16;5098413;28;20039;-79
2022/04/17 09:40:36;;;;;;;2.13;0.90;;;;;;;13.94;31.40;101368.16;5099087;28;20480;-79
2022/04/17 09:43:15;;;;;;;2.17;0.90;;;;;;;13.79;32.88;101362.06;5098536;28;20024;-79
2022/04/17 09:46:04;;;;;;;2.13;1.00;;;;;;;13.66;33.17;101365.53;5098182;28;20032;-79
2022/04/17 09:48:35;;;;;;;1.77;0.88;;;;;;;13.95;32.68;101364.41;5097965;28;20028;-78
2022/04/17 09:51:17;;;;;;;3.22;1.10;;;;;;;13.85;32.40;101353.09;5097664;28;20538;-78
2022/04/17 09:53:43;;;;;;;2.90;0.90;;;;;;;14.03;32.78;101334.38;5098419;28;20057;-79
2022/04/17 09:56:11;;;;;;;2.03;0.90;;;;;;;14.14;32.75;101341.09;5097545;28;20466;-79
2022/04/17 09:58:38;;;;;;;2.35;1.00;;;;;;;14.06;31.30;101339.41;5098069;28;20051;-79
2022/04/17 10:01:06;;;;;;;1.98;0.73;;;;;;;14.35;30.75;101338.19;5098400;28;20066;-79
2022/04/17 10:03:34;;;;;;;3.80;0.90;;;;;;;14.24;29.96;101336.09;5098221;28;20028;-78
2022/04/17 10:05:59;;;;;;;2.08;0.73;;;;;;;14.35;29.28;101329.22;5099612;28;20081;-79
2022/04/17 10:08:26;;;;;;;2.13;0.80;;;;;;;14.38;29.62;101318.78;5101900;28;20024;-80
2022/04/17 10:10:51;;;;;;;1.85;0.80;;;;;;;14.29;29.95;101328.19;5103682;28;20024;-79
2022/04/17 10:13:19;;;;;;;1.92;0.80;;;;;;;14.15;30.07;101321.88;5102532;28;20035;-79
2022/04/17 10:15:47;;;;;;;4.05;1.13;;;;;;;14.25;30.84;101319.63;5104740;28;20039;-78
2022/04/17 10:18:14;;;;;;;2.15;0.93;;;;;;;14.42;30.54;101316.53;5104918;28;20429;-78
2022/04/17 10:20:40;;;;;;;2.38;0.90;;;;;;;14.59;30.93;101301.50;5101394;28;20052;-79
2022/04/17 10:23:09;;;;;;;2.53;0.85;;;;;;;14.62;30.59;101306.53;5097328;28;20067;-77
2022/04/17 10:25:36;;;;;;;3.30;1.23;;;;;;;14.71;30.71;101293.56;5103277;28;20035;-79
2022/04/17 10:28:06;;;;;;;2.38;1.00;;;;;;;15.04;30.23;101296.22;5100957;28;20048;-79
2022/04/17 10:31:05;;;;;;;2.58;0.90;;;;;;;15.12;29.98;101283.25;5100847;28;20379;-77
2022/04/17 10:33:48;;;;;;;3.97;1.20;;;;;;;15.05;30.89;101277.00;5100738;28;20032;-78
2022/04/17 10:36:48;;;;;;;1.38;0.73;;;;;;;15.17;28.74;101277.19;5100002;28;20029;-78
2022/04/17 10:39:13;;;;;;;1.92;0.77;;;;;;;15.18;28.34;101262.56;5099247;28;20056;-80
2022/04/17 10:41:41;;;;;;;1.30;0.60;;;;;;;15.25;27.40;101261.47;5098994;28;20031;-79
2022/04/17 10:44:09;;;;;;;1.95;0.77;;;;;;;15.13;27.87;101252.34;5097906;28;20082;-78
2022/04/17 10:46:49;;;;;;;2.67;0.70;;;;;;;15.47;27.95;101253.84;5098218;28;20024;-79
2022/04/17 10:49:22;;;;;;;1.77;0.65;;;;;;;15.42;27.52;101244.69;5097087;28;20035;-78
2022/04/17 10:51:56;;;;;;;1.95;0.60;;;;;;;15.32;28.14;101256.03;5097386;28;20028;-77
2022/04/17 10:54:22;;;;;;;1.65;0.70;;;;;;;15.52;26.73;101259.47;5097404;28;20035;-78
2022/04/17 10:56:53;;;;;;;1.73;0.80;;;;;;;15.46;26.76;101235.06;5098593;28;20114;-78
2022/04/17 10:59:20;;;;;;;2.45;0.65;;;;;;;15.70;26.93;101236.22;5095964;28;20101;-77
2022/04/17 11:01:49;;;;;;;1.65;0.70;;;;;;;15.62;27.48;101227.25;5095781;28;20031;-77
2022/04/17 11:04:19;;;;;;;1.83;0.68;;;;;;;15.47;27.02;101232.13;5096158;28;20031;-77
2022/04/17 11:06:45;;;;;;;1.58;0.80;;;;;;;15.79;26.76;101221.28;5097290;28;20043;-79
2022/04/17 11:09:20;;;;;;;2.40;0.80;;;;;;;15.73;27.46;101217.59;5098859;28;20028;-79
2022/04/17 11:11:45;;;;;;;1.88;0.80;;;;;;;16.06;27.20;101213.78;5097587;28;20477;-80
2022/04/17 11:14:13;;;;;;;3.70;0.90;;;;;;;16.09;26.71;101206.03;5098865;28;20038;-79
2022/04/17 11:16:46;;;;;;;2.47;0.70;;;;;;;15.81;26.93;101206.44;5099596;28;20032;-79
2022/04/17 11:19:14;;;;;;;4.15;0.80;;;;;;;16.26;26.83;101209.03;5103395;28;20028;-78
2022/04/17 11:21:45;;;;;;;2.65;0.70;;;;;;;16.05;27.07;101203.97;5103508;28;20051;-78
2022/04/17 11:24:10;;;;;;;1.73;0.70;;;;;;;16.07;26.62;101196.44;5101484;28;20024;-79
2022/04/17 11:26:51;;;;;;;2.70;0.82;;;;;;;16.07;26.64;101197.25;5096903;28;20062;-79
2022/04/17 11:29:16;;;;;;;1.60;0.75;;;;;;;16.19;26.37;101198.19;5098306;28;20028;-79
2022/04/17 11:31:41;;;;;;;2.80;0.90;;;;;;;16.16;26.17;101185.03;5097369;28;20535;-78
2022/04/17 11:34:07;;;;;;;2.50;0.77;;;;;;;16.48;25.93;101184.97;5097343;28;20514;-79
2022/04/17 11:36:32;;;;;;;1.98;0.82;;;;;;;16.39;25.63;101183.56;5098242;28;20573;-79
2022/04/17 11:38:57;;;;;;;;;;;;;;;16.42;25.23;101177.69;5096619;28;20032;-78
2022/04/17 11:41:23;;;;;;;1.40;0.60;;;;;;;16.46;25.62;101165.31;5096230;28;19908;-79